Spg Valley, Ohio
Current Conditions -  °F | °C
As of 3:53 PM on Thursday 18 Dec 2014 (Local Time) from KMGY Reporting Station
Overcast Overcast  
Wind Chill: 29°   Ceiling: 2100
Heat Index: 29°   Visibility: 10mi
Dew Point: 20°   Wind: 3mph
Humidity: 69%   Direction: 300°WNW
Pressure: 30.2"   Gusts: NA
Location:  39.6097°N, 84.0251°W
Report Text: KMGY 182053Z AUTO 30003KT 10SM BKN021 OVC085 M02/M07 A3020 RMK AO2 SLP237 T10171067 56009
Loading
Personal Weather Stations






























Interactive Weather Map New forecast layout! Learn more

10-Day Weather Forecast

Advertisements
Track Severe Weather on mobile